createdAt,value
2017-09-27T00:00:49.619Z,99.99
2017-09-27T00:01:49.616Z,99.99
2017-09-27T00:02:49.613Z,99.99
2017-09-27T00:03:49.610Z,99.99
2017-09-27T00:04:49.608Z,99.99
2017-09-27T00:05:49.609Z,99.71
2017-09-27T00:06:49.606Z,99.99
2017-09-27T00:07:49.604Z,99.99
2017-09-27T00:08:49.602Z,99.99
2017-09-27T00:09:49.595Z,99.99
2017-09-27T00:10:49.592Z,99.99
2017-09-27T00:11:49.590Z,99.90
2017-09-27T00:12:49.586Z,99.90
2017-09-27T00:13:49.588Z,99.99
2017-09-27T00:14:49.586Z,99.99
2017-09-27T00:15:49.583Z,99.99
2017-09-27T00:16:49.581Z,99.99
2017-09-27T00:17:49.577Z,99.99
2017-09-27T00:18:49.573Z,99.99
2017-09-27T00:19:49.571Z,99.99
2017-09-27T00:20:49.569Z,99.90
2017-09-27T00:21:49.562Z,99.99
2017-09-27T00:22:49.559Z,99.99
2017-09-27T00:23:49.557Z,99.99
2017-09-27T00:24:49.553Z,99.99
2017-09-27T00:25:49.552Z,99.99
2017-09-27T00:26:49.549Z,99.99
2017-09-27T00:27:49.546Z,99.99
2017-09-27T00:28:49.542Z,99.99
2017-09-27T00:29:49.542Z,99.99
2017-09-27T00:30:49.545Z,99.99
2017-09-27T00:31:49.538Z,99.99
2017-09-27T00:32:49.534Z,99.99
2017-09-27T00:33:49.531Z,99.99
2017-09-27T00:34:49.529Z,99.99
2017-09-27T00:35:49.525Z,99.99
2017-09-27T00:36:49.522Z,99.99
2017-09-27T00:37:49.515Z,99.99
2017-09-27T00:38:49.513Z,99.99
2017-09-27T00:39:49.509Z,99.99
2017-09-27T00:40:49.506Z,99.99
2017-09-27T00:41:49.502Z,99.99
2017-09-27T00:42:49.500Z,99.99
2017-09-27T00:43:49.501Z,99.99
2017-09-27T00:44:49.523Z,99.99
2017-09-27T00:45:49.495Z,99.99
2017-09-27T00:46:49.492Z,99.99
2017-09-27T00:47:49.488Z,99.99
2017-09-27T00:48:49.486Z,99.99
2017-09-27T00:49:49.484Z,99.99
2017-09-27T00:50:49.478Z,99.99
2017-09-27T00:51:49.476Z,99.99
2017-09-27T00:52:49.471Z,99.99
2017-09-27T00:53:49.466Z,99.99
2017-09-27T00:54:49.462Z,99.99
2017-09-27T00:55:49.458Z,99.99
2017-09-27T00:56:49.455Z,99.99
2017-09-27T00:57:49.451Z,99.99
2017-09-27T00:58:49.448Z,99.99
2017-09-27T00:59:49.445Z,99.99
2017-09-27T01:00:49.442Z,99.99
2017-09-27T01:01:49.442Z,99.99
2017-09-27T01:02:49.439Z,99.99
2017-09-27T01:03:49.436Z,99.99
2017-09-27T01:04:49.431Z,99.99
2017-09-27T01:05:49.427Z,99.99
2017-09-27T01:06:49.426Z,99.99
2017-09-27T01:07:49.422Z,99.99
2017-09-27T01:08:49.418Z,99.99
2017-09-27T01:09:49.411Z,99.99
2017-09-27T01:10:49.408Z,99.99
2017-09-27T01:11:49.406Z,99.99
2017-09-27T01:12:49.400Z,99.99
2017-09-27T01:13:49.401Z,99.99
2017-09-27T01:14:49.398Z,99.99
2017-09-27T01:15:49.394Z,99.99
2017-09-27T01:16:49.389Z,99.99
2017-09-27T01:17:49.384Z,99.99
2017-09-27T01:18:49.381Z,99.99
2017-09-27T01:19:49.376Z,99.99
2017-09-27T01:20:49.376Z,99.99
2017-09-27T01:21:49.368Z,99.99
2017-09-27T01:22:49.365Z,99.99
2017-09-27T01:23:49.361Z,99.99
2017-09-27T01:24:49.358Z,99.99
2017-09-27T01:25:49.358Z,99.99
2017-09-27T01:26:49.356Z,99.99
2017-09-27T01:27:49.352Z,99.99
2017-09-27T01:28:49.348Z,99.99
2017-09-27T01:29:49.346Z,99.99
2017-09-27T01:30:49.340Z,99.99
2017-09-27T01:31:49.339Z,99.99
2017-09-27T01:32:49.335Z,99.99
2017-09-27T01:33:49.326Z,99.99
2017-09-27T01:34:49.324Z,99.99
2017-09-27T01:35:49.319Z,99.99
2017-09-27T01:36:49.316Z,99.99
2017-09-27T01:37:49.312Z,99.99
2017-09-27T01:38:49.309Z,99.99
2017-09-27T01:39:49.309Z,99.99
2017-09-27T01:40:49.300Z,99.99
2017-09-27T01:41:49.301Z,99.99
2017-09-27T01:42:49.299Z,99.99
2017-09-27T01:43:49.295Z,99.99
2017-09-27T01:44:49.294Z,99.99
2017-09-27T01:45:49.288Z,99.99
2017-09-27T01:46:49.283Z,99.99
2017-09-27T01:47:49.282Z,99.99
2017-09-27T01:48:49.280Z,99.99
2017-09-27T01:49:49.268Z,99.99
2017-09-27T01:50:49.265Z,99.99
2017-09-27T01:51:49.262Z,99.99
2017-09-27T01:52:49.257Z,99.99
2017-09-27T01:53:49.256Z,99.99
2017-09-27T01:54:49.251Z,99.99
2017-09-27T01:55:49.247Z,99.99
2017-09-27T01:56:49.243Z,99.99
2017-09-27T01:57:49.243Z,99.99
2017-09-27T01:58:49.245Z,99.99
2017-09-27T01:59:49.237Z,99.99
2017-09-27T02:00:49.231Z,99.99
2017-09-27T02:01:49.228Z,99.99
2017-09-27T02:02:49.225Z,99.99
2017-09-27T02:03:49.221Z,99.99
2017-09-27T02:04:49.217Z,99.99
2017-09-27T02:05:49.208Z,99.99
2017-09-27T02:06:49.204Z,99.99
2017-09-27T02:07:49.202Z,99.99
2017-09-27T02:08:49.196Z,99.99
2017-09-27T02:09:49.193Z,99.99
2017-09-27T02:10:49.191Z,99.99
2017-09-27T02:11:49.186Z,99.99
2017-09-27T02:12:49.183Z,99.99
2017-09-27T02:13:49.183Z,99.99
2017-09-27T02:14:49.178Z,99.99
2017-09-27T02:15:49.174Z,99.99
2017-09-27T02:16:49.168Z,99.99
2017-09-27T02:17:49.164Z,99.99
2017-09-27T02:18:49.158Z,99.99
2017-09-27T02:19:49.155Z,99.99
2017-09-27T02:20:49.150Z,99.99
2017-09-27T02:21:49.151Z,99.99
2017-09-27T02:22:49.147Z,99.99
2017-09-27T02:23:49.142Z,99.99
2017-09-27T02:24:49.138Z,99.99
2017-09-27T02:25:49.135Z,99.99
2017-09-27T02:26:49.135Z,99.99
2017-09-27T02:27:49.130Z,99.99
2017-09-27T02:28:49.121Z,99.99
2017-09-27T02:29:49.115Z,99.99
2017-09-27T02:30:49.111Z,99.99
2017-09-27T02:31:49.106Z,99.99
2017-09-27T02:32:49.102Z,99.99
2017-09-27T02:33:49.098Z,99.99
2017-09-27T02:34:49.100Z,99.99
2017-09-27T02:35:49.090Z,99.99
2017-09-27T02:36:49.086Z,99.99
2017-09-27T02:37:49.086Z,99.99
2017-09-27T02:38:49.082Z,99.99
2017-09-27T02:39:49.079Z,99.99
2017-09-27T02:40:49.074Z,99.99
2017-09-27T02:41:49.070Z,99.99
2017-09-27T02:42:49.066Z,99.99
2017-09-27T02:43:49.063Z,99.99
2017-09-27T02:44:49.059Z,99.99
2017-09-27T02:45:49.049Z,99.99
2017-09-27T02:46:49.046Z,99.99
2017-09-27T02:47:49.042Z,99.99
2017-09-27T02:48:49.036Z,99.99
2017-09-27T02:49:49.032Z,99.99
2017-09-27T02:50:49.028Z,99.99
2017-09-27T02:51:49.025Z,99.99
2017-09-27T02:52:49.020Z,99.99
2017-09-27T02:53:49.020Z,99.99
2017-09-27T02:54:49.016Z,99.99
2017-09-27T02:55:49.017Z,99.99
2017-09-27T02:56:49.008Z,99.99
2017-09-27T02:57:49.005Z,99.99
2017-09-27T02:58:49.000Z,99.99
2017-09-27T02:59:48.996Z,99.99
2017-09-27T03:00:48.990Z,99.99
2017-09-27T03:01:48.981Z,99.99
2017-09-27T03:02:48.981Z,99.99
2017-09-27T03:03:48.975Z,99.99
2017-09-27T03:04:48.969Z,99.99
2017-09-27T03:05:48.967Z,99.99
2017-09-27T03:06:48.962Z,99.99
2017-09-27T03:07:48.958Z,99.99
2017-09-27T03:08:48.952Z,99.99
2017-09-27T03:09:48.952Z,99.99
2017-09-27T03:10:48.949Z,99.99
2017-09-27T03:11:48.944Z,99.99
2017-09-27T03:12:48.941Z,99.99
2017-09-27T03:13:48.936Z,99.99
2017-09-27T03:14:48.933Z,99.99
2017-09-27T03:15:48.929Z,99.99
2017-09-27T03:16:48.924Z,99.99
2017-09-27T03:17:48.914Z,99.99
2017-09-27T03:18:48.912Z,99.99
2017-09-27T03:19:48.907Z,99.99
2017-09-27T03:20:48.903Z,99.99
2017-09-27T03:21:48.903Z,99.99
2017-09-27T03:22:48.901Z,99.99
2017-09-27T03:23:48.896Z,99.99
2017-09-27T03:24:48.891Z,99.99
2017-09-27T03:25:48.881Z,99.99
2017-09-27T03:26:48.879Z,99.99
2017-09-27T03:27:48.876Z,99.99
2017-09-27T03:28:48.870Z,99.99
2017-09-27T03:29:48.866Z,99.99
2017-09-27T03:30:48.864Z,99.99
2017-09-27T03:31:48.859Z,99.99
2017-09-27T03:32:48.853Z,99.99
2017-09-27T03:33:48.854Z,99.99
2017-09-27T03:34:48.850Z,99.99
2017-09-27T03:35:48.848Z,99.99
2017-09-27T03:36:48.841Z,99.99
2017-09-27T03:37:48.838Z,99.99
2017-09-27T03:38:48.833Z,99.99
2017-09-27T03:39:48.830Z,99.99
2017-09-27T03:40:48.824Z,99.99
2017-09-27T03:41:48.821Z,99.99
2017-09-27T03:42:48.813Z,99.99
2017-09-27T03:43:48.808Z,99.99
2017-09-27T03:44:48.803Z,99.99
2017-09-27T03:45:48.799Z,99.99
2017-09-27T03:46:48.796Z,99.99
2017-09-27T03:47:48.791Z,99.99
2017-09-27T03:48:48.787Z,99.99
2017-09-27T03:49:48.786Z,99.99
2017-09-27T03:50:48.782Z,99.99
2017-09-27T03:51:48.780Z,99.99
2017-09-27T03:52:48.774Z,99.99
2017-09-27T03:53:48.770Z,99.99
2017-09-27T03:54:48.768Z,99.99
2017-09-27T03:55:48.761Z,99.99
2017-09-27T03:56:48.758Z,99.99
2017-09-27T03:57:48.750Z,99.99
2017-09-27T03:58:48.752Z,99.99
2017-09-27T03:59:48.741Z,99.99
2017-09-27T04:00:48.736Z,99.99
2017-09-27T04:01:48.731Z,99.99
2017-09-27T04:02:48.728Z,99.99
2017-09-27T04:03:48.724Z,99.99
2017-09-27T04:04:48.722Z,99.99
2017-09-27T04:05:48.720Z,99.99
2017-09-27T04:06:48.716Z,99.99
2017-09-27T04:07:48.711Z,99.99
2017-09-27T04:08:48.704Z,99.99
2017-09-27T04:09:48.701Z,99.99
2017-09-27T04:10:48.698Z,99.99
2017-09-27T04:11:48.694Z,99.99
2017-09-27T04:12:48.689Z,99.99
2017-09-27T04:13:48.680Z,99.99
2017-09-27T04:14:48.677Z,99.99
2017-09-27T04:15:48.672Z,99.99
2017-09-27T04:16:48.667Z,99.99
2017-09-27T04:17:48.663Z,99.99
2017-09-27T04:18:48.662Z,99.99
2017-09-27T04:19:48.655Z,99.99
2017-09-27T04:20:48.650Z,99.99
2017-09-27T04:21:48.649Z,99.99
2017-09-27T04:22:48.649Z,99.99
2017-09-27T04:23:48.641Z,99.99
2017-09-27T04:24:48.637Z,99.99
2017-09-27T04:25:48.632Z,99.99
2017-09-27T04:26:48.627Z,99.99
2017-09-27T04:27:48.624Z,99.99
2017-09-27T04:28:48.617Z,99.99
2017-09-27T04:29:48.610Z,99.99
2017-09-27T04:30:48.606Z,99.99
2017-09-27T04:31:48.602Z,99.99
2017-09-27T04:32:48.597Z,99.99
2017-09-27T04:33:48.591Z,99.99
2017-09-27T04:34:48.586Z,99.99
2017-09-27T04:35:48.583Z,99.99
2017-09-27T04:36:48.579Z,99.99
2017-09-27T04:37:48.577Z,99.99
2017-09-27T04:38:48.572Z,99.99
2017-09-27T04:39:48.569Z,99.99
2017-09-27T04:40:48.567Z,99.99
2017-09-27T04:41:48.560Z,99.99
2017-09-27T04:42:48.555Z,99.99
2017-09-27T04:43:48.551Z,99.99
2017-09-27T04:44:48.546Z,99.99
2017-09-27T04:45:48.538Z,99.99
2017-09-27T04:46:48.534Z,99.99
2017-09-27T04:47:48.528Z,99.99
2017-09-27T04:48:48.523Z,99.99
2017-09-27T04:49:48.519Z,99.99
2017-09-27T04:50:48.520Z,99.99
2017-09-27T04:51:48.510Z,99.99
2017-09-27T04:52:48.506Z,99.99
2017-09-27T04:53:48.506Z,99.99
2017-09-27T04:54:48.500Z,99.99
2017-09-27T04:55:48.497Z,99.99
2017-09-27T04:56:48.492Z,99.99
2017-09-27T04:57:48.487Z,99.99
2017-09-27T04:58:48.483Z,99.99
2017-09-27T04:59:48.479Z,99.99
2017-09-27T05:00:48.475Z,99.99
2017-09-27T05:01:48.466Z,99.99
2017-09-27T05:02:48.461Z,99.99
2017-09-27T05:03:48.458Z,99.99
2017-09-27T05:04:48.452Z,99.99
2017-09-27T05:05:48.447Z,99.99
2017-09-27T05:06:48.444Z,99.99
2017-09-27T05:07:48.438Z,99.99
2017-09-27T05:08:48.433Z,99.99
2017-09-27T05:09:48.434Z,99.99
2017-09-27T05:10:48.430Z,99.99
2017-09-27T05:11:48.425Z,99.99
2017-09-27T05:12:48.420Z,99.99
2017-09-27T05:13:48.414Z,99.99
2017-09-27T05:14:48.410Z,99.99
2017-09-27T05:15:48.405Z,99.99
2017-09-27T05:16:48.400Z,99.99
2017-09-27T05:17:48.392Z,99.99
2017-09-27T05:18:48.389Z,99.99
2017-09-27T05:19:48.384Z,99.99
2017-09-27T05:20:48.379Z,99.99
2017-09-27T05:21:48.375Z,99.99
2017-09-27T05:22:48.371Z,99.99
2017-09-27T05:23:48.366Z,99.99
2017-09-27T05:24:48.361Z,99.99
2017-09-27T05:25:48.361Z,99.99
2017-09-27T05:26:48.357Z,99.99
2017-09-27T05:27:48.351Z,99.99
2017-09-27T05:28:48.346Z,99.99
2017-09-27T05:29:48.340Z,99.99
2017-09-27T05:30:48.334Z,99.99
2017-09-27T05:31:48.333Z,99.99
2017-09-27T05:32:48.326Z,99.99
2017-09-27T05:33:48.325Z,99.99
2017-09-27T05:34:48.321Z,99.99
2017-09-27T05:35:48.317Z,99.99
2017-09-27T05:36:48.312Z,99.99
2017-09-27T05:37:48.307Z,99.99
2017-09-27T05:38:48.302Z,99.99
2017-09-27T05:39:48.298Z,99.99
2017-09-27T05:40:48.291Z,99.99
2017-09-27T05:41:48.284Z,99.99
2017-09-27T05:42:48.281Z,99.99
2017-09-27T05:43:48.275Z,99.99
2017-09-27T05:44:48.271Z,99.99
2017-09-27T05:45:48.266Z,99.99
2017-09-27T05:46:48.264Z,99.99
2017-09-27T05:47:48.258Z,99.99
2017-09-27T05:48:48.252Z,99.99
2017-09-27T05:49:48.252Z,99.99
2017-09-27T05:50:48.247Z,99.99
2017-09-27T05:51:48.244Z,99.99
2017-09-27T05:52:48.238Z,99.99
2017-09-27T05:53:48.237Z,99.99
2017-09-27T05:54:48.231Z,99.99
2017-09-27T05:55:48.228Z,99.99
2017-09-27T05:56:48.222Z,99.99
2017-09-27T05:57:48.214Z,99.99
2017-09-27T05:58:48.209Z,99.99
2017-09-27T05:59:48.206Z,99.99
2017-09-27T06:00:48.201Z,99.99
2017-09-27T06:01:48.196Z,99.99
2017-09-27T06:02:48.191Z,99.99
2017-09-27T06:03:48.189Z,99.99
2017-09-27T06:04:48.184Z,99.99
2017-09-27T06:05:48.184Z,99.99
2017-09-27T06:06:48.180Z,99.71
2017-09-27T06:07:48.177Z,99.23
2017-09-27T06:08:48.171Z,98.75
2017-09-27T06:09:48.168Z,99.23
2017-09-27T06:10:48.166Z,99.42
2017-09-27T06:11:48.159Z,98.75
2017-09-27T06:12:48.157Z,99.23
2017-09-27T06:13:48.149Z,99.42
2017-09-27T06:14:48.147Z,99.23
2017-09-27T06:15:48.143Z,98.90
2017-09-27T06:16:48.138Z,98.80
2017-09-27T06:17:48.134Z,98.71
2017-09-27T06:18:48.130Z,98.61
2017-09-27T06:19:48.127Z,98.52
2017-09-27T06:20:48.123Z,98.52
2017-09-27T06:21:48.124Z,98.90
2017-09-27T06:22:48.121Z,98.71
2017-09-27T06:23:48.118Z,98.90
2017-09-27T06:24:48.113Z,98.32
2017-09-27T06:25:48.116Z,99.08
2017-09-27T06:26:48.108Z,99.28
2017-09-27T06:27:48.105Z,99.37
2017-09-27T06:28:48.100Z,98.99
2017-09-27T06:29:48.094Z,99.28
2017-09-27T06:30:48.093Z,99.08
2017-09-27T06:31:48.087Z,98.99
2017-09-27T06:32:48.084Z,99.37
2017-09-27T06:33:48.083Z,98.94
2017-09-27T06:34:48.081Z,99.23
2017-09-27T06:35:48.078Z,99.33
2017-09-27T06:36:48.074Z,99.90
2017-09-27T06:37:48.069Z,99.90
2017-09-27T06:38:48.065Z,99.99
2017-09-27T06:39:48.061Z,99.99
2017-09-27T06:40:48.057Z,99.99
2017-09-27T06:41:48.101Z,99.90
2017-09-27T06:42:48.051Z,99.80
2017-09-27T06:43:48.049Z,99.71
2017-09-27T06:44:48.045Z,99.90
2017-09-27T06:45:48.047Z,99.90
2017-09-27T06:46:48.044Z,99.99
2017-09-27T06:47:48.042Z,99.80
2017-09-27T06:48:48.037Z,99.33
2017-09-27T06:49:48.034Z,99.33
2017-09-27T06:50:48.032Z,99.33
2017-09-27T06:51:48.029Z,99.52
2017-09-27T06:52:48.025Z,98.94
2017-09-27T06:53:48.016Z,99.33
2017-09-27T06:54:48.015Z,98.75
2017-09-27T06:55:48.011Z,98.57
2017-09-27T06:56:48.009Z,98.85
2017-09-27T06:57:48.006Z,98.66
2017-09-27T06:58:48.002Z,98.75
2017-09-27T06:59:48.001Z,99.43
2017-09-27T07:00:47.997Z,99.33
2017-09-27T07:01:47.998Z,99.23
2017-09-27T07:02:48.001Z,98.94
2017-09-27T07:03:47.993Z,99.52
2017-09-27T07:04:47.990Z,99.33
2017-09-27T07:05:47.987Z,99.99
2017-09-27T07:06:47.983Z,99.38
2017-09-27T07:07:47.981Z,99.09
2017-09-27T07:08:47.978Z,98.52
2017-09-27T07:09:47.971Z,98.04
2017-09-27T07:10:47.967Z,98.42
2017-09-27T07:11:47.967Z,97.94
2017-09-27T07:12:47.964Z,97.75
2017-09-27T07:13:47.960Z,97.56
2017-09-27T07:14:47.957Z,97.08
2017-09-27T07:15:47.953Z,97.42
2017-09-27T07:16:47.951Z,96.94
2017-09-27T07:17:47.959Z,96.32
2017-09-27T07:18:47.952Z,95.56
2017-09-27T07:19:47.948Z,94.26
2017-09-27T07:20:47.944Z,93.69
2017-09-27T07:21:47.943Z,90.81
2017-09-27T07:22:47.941Z,88.21
2017-09-27T07:23:47.939Z,84.84
2017-09-27T07:24:47.937Z,82.23
2017-09-27T07:25:47.933Z,79.86
2017-09-27T07:26:47.931Z,78.17
2017-09-27T07:27:47.931Z,75.84
2017-09-27T07:28:47.929Z,73.53
2017-09-27T07:29:47.930Z,71.86
2017-09-27T07:30:47.930Z,70.26
2017-09-27T07:31:47.931Z,68.55
2017-09-27T07:32:47.931Z,67.24
2017-09-27T07:33:47.936Z,65.53
2017-09-27T07:34:47.937Z,64.37
2017-09-27T07:35:47.940Z,63.92
2017-09-27T07:36:47.941Z,63.37
2017-09-27T07:37:47.940Z,61.85
2017-09-27T07:38:47.942Z,60.30
2017-09-27T07:39:47.947Z,59.75
2017-09-27T07:40:47.948Z,59.53
2017-09-27T07:41:47.957Z,58.59
2017-09-27T07:42:47.965Z,59.66
2017-09-27T07:43:47.963Z,59.50
2017-09-27T07:44:47.968Z,59.69
2017-09-27T07:45:47.974Z,60.72
2017-09-27T07:46:47.978Z,60.47
2017-09-27T07:47:47.984Z,60.11
2017-09-27T07:48:48.028Z,60.08
2017-09-27T07:49:47.987Z,60.14
2017-09-27T07:50:54.260Z,59.75
2017-09-27T07:51:48.000Z,58.55
2017-09-27T07:52:48.005Z,57.80
2017-09-27T07:53:48.012Z,56.25
2017-09-27T07:54:48.017Z,56.28
2017-09-27T07:55:48.023Z,55.64
2017-09-27T07:56:48.028Z,55.89
2017-09-27T07:57:48.039Z,55.77
2017-09-27T07:58:48.047Z,56.09
2017-09-27T07:59:48.054Z,55.27
2017-09-27T08:00:48.060Z,53.35
2017-09-27T08:01:48.078Z,52.72
2017-09-27T08:02:48.074Z,50.97
2017-09-27T08:03:48.083Z,50.51
2017-09-27T08:04:48.088Z,50.26
2017-09-27T08:05:48.092Z,50.68
2017-09-27T08:06:48.121Z,49.49
2017-09-27T08:07:48.107Z,50.24
2017-09-27T08:08:48.114Z,52.29
2017-09-27T08:09:48.122Z,54.88
2017-09-27T08:10:48.130Z,56.20
2017-09-27T08:11:48.143Z,56.23
2017-09-27T08:12:48.146Z,54.82
2017-09-27T08:13:48.157Z,54.95
2017-09-27T08:14:48.168Z,57.37
2017-09-27T08:15:48.175Z,57.75
2017-09-27T08:16:48.184Z,56.59
2017-09-27T08:17:48.192Z,56.26
2017-09-27T08:18:48.200Z,56.26
2017-09-27T08:19:48.207Z,56.47
2017-09-27T08:20:48.220Z,57.08
2017-09-27T08:21:48.220Z,57.75
2017-09-27T08:22:48.229Z,56.46
2017-09-27T08:23:48.237Z,57.04
2017-09-27T08:24:48.246Z,56.32
2017-09-27T08:25:48.254Z,55.31
2017-09-27T08:26:48.263Z,54.02
2017-09-27T08:27:48.273Z,53.69
2017-09-27T08:28:48.282Z,53.24
2017-09-27T08:29:48.295Z,53.10
2017-09-27T08:30:48.311Z,52.95
2017-09-27T08:31:48.314Z,52.98
2017-09-27T08:32:48.322Z,53.39
2017-09-27T08:33:48.338Z,54.44
2017-09-27T08:34:48.341Z,52.96
2017-09-27T08:35:48.353Z,51.53
2017-09-27T08:36:48.360Z,50.99
2017-09-27T08:37:48.367Z,49.44
2017-09-27T08:38:48.376Z,48.90
2017-09-27T08:39:48.387Z,49.68
2017-09-27T08:40:48.397Z,50.65
2017-09-27T08:41:48.411Z,49.05
2017-09-27T08:42:48.422Z,48.49
2017-09-27T08:43:48.433Z,47.53
2017-09-27T08:44:48.441Z,46.66
2017-09-27T08:45:48.456Z,46.12
2017-09-27T08:46:48.459Z,45.81
2017-09-27T08:47:48.471Z,45.20
2017-09-27T08:48:48.482Z,45.07
2017-09-27T08:49:48.491Z,44.66
2017-09-27T08:50:48.503Z,44.12
2017-09-27T08:51:48.516Z,43.99
2017-09-27T08:52:48.526Z,44.04
2017-09-27T08:53:48.541Z,42.99
2017-09-27T08:54:48.553Z,43.30
2017-09-27T08:55:48.566Z,44.98
2017-09-27T08:56:48.576Z,46.42
2017-09-27T08:57:48.588Z,47.49
2017-09-27T08:58:48.599Z,49.44
2017-09-27T08:59:48.612Z,50.84
2017-09-27T09:00:48.623Z,50.87
2017-09-27T09:01:48.632Z,51.47
2017-09-27T09:02:48.644Z,52.20
2017-09-27T09:03:48.655Z,51.96
2017-09-27T09:04:48.665Z,53.20
2017-09-27T09:05:48.678Z,52.72
2017-09-27T09:06:48.691Z,50.56
2017-09-27T09:07:48.703Z,48.78
2017-09-27T09:08:48.713Z,48.32
2017-09-27T09:09:48.730Z,46.80
2017-09-27T09:10:48.744Z,46.05
2017-09-27T09:11:48.755Z,45.61
2017-09-27T09:12:48.768Z,44.54
2017-09-27T09:13:48.794Z,44.81
2017-09-27T09:14:48.793Z,45.61
2017-09-27T09:15:48.806Z,45.17
2017-09-27T09:16:48.818Z,44.07
2017-09-27T09:17:48.824Z,44.02
2017-09-27T09:18:48.837Z,43.46
2017-09-27T09:19:48.849Z,42.94
2017-09-27T09:20:48.867Z,43.07
2017-09-27T09:21:48.875Z,42.13
2017-09-27T09:22:48.888Z,41.31
2017-09-27T09:23:48.909Z,40.17
2017-09-27T09:24:48.912Z,40.58
2017-09-27T09:25:48.933Z,40.56
2017-09-27T09:26:48.989Z,41.48
2017-09-27T09:27:49.130Z,42.38
2017-09-27T09:28:48.967Z,41.80
2017-09-27T09:29:48.981Z,41.95
2017-09-27T09:30:48.993Z,42.14
2017-09-27T09:31:49.007Z,42.83
2017-09-27T09:32:49.020Z,42.68
2017-09-27T09:33:49.028Z,42.69
2017-09-27T09:34:49.041Z,42.48
2017-09-27T09:35:49.054Z,42.14
2017-09-27T09:36:49.067Z,42.68
2017-09-27T09:37:49.081Z,42.03
2017-09-27T09:38:49.094Z,42.55
2017-09-27T09:39:49.111Z,43.85
2017-09-27T09:40:49.120Z,44.01
2017-09-27T09:41:49.138Z,45.25
2017-09-27T09:42:49.150Z,45.78
2017-09-27T09:43:49.165Z,45.17
2017-09-27T09:44:49.177Z,44.24
2017-09-27T09:45:49.186Z,43.55
2017-09-27T09:46:49.200Z,42.83
2017-09-27T09:47:49.213Z,41.29
2017-09-27T09:48:49.227Z,40.14
2017-09-27T09:49:49.245Z,40.06
2017-09-27T09:50:49.259Z,41.38
2017-09-27T09:51:49.273Z,41.66
2017-09-27T09:52:49.284Z,42.73
2017-09-27T09:53:49.298Z,42.93
2017-09-27T09:54:49.313Z,42.38
2017-09-27T09:55:49.326Z,41.86
2017-09-27T09:56:49.340Z,41.15
2017-09-27T09:57:49.349Z,40.43
2017-09-27T09:58:49.363Z,41.41
2017-09-27T09:59:49.376Z,41.36
2017-09-27T10:00:49.387Z,41.62
2017-09-27T10:01:49.403Z,41.70
2017-09-27T10:02:49.415Z,42.05
2017-09-27T10:03:49.439Z,42.29
2017-09-27T10:04:49.443Z,41.93
2017-09-27T10:05:49.460Z,40.97
2017-09-27T10:06:49.475Z,41.20
2017-09-27T10:07:49.488Z,42.65
2017-09-27T10:08:49.502Z,44.05
2017-09-27T10:09:49.515Z,44.70
2017-09-27T10:10:49.529Z,43.13
2017-09-27T10:11:49.545Z,42.36
2017-09-27T10:12:49.557Z,40.97
2017-09-27T10:13:49.567Z,40.35
2017-09-27T10:14:49.582Z,40.17
2017-09-27T10:15:49.600Z,38.35
2017-09-27T10:16:49.609Z,37.52
2017-09-27T10:17:49.622Z,38.45
2017-09-27T10:18:49.637Z,38.78
2017-09-27T10:19:49.652Z,38.64
2017-09-27T10:20:49.666Z,38.84
2017-09-27T10:21:49.682Z,39.41
2017-09-27T10:22:49.697Z,40.50
2017-09-27T10:23:49.714Z,41.07
2017-09-27T10:24:49.726Z,42.94
2017-09-27T10:25:49.745Z,43.54
2017-09-27T10:26:49.755Z,43.95
2017-09-27T10:27:49.770Z,44.23
2017-09-27T10:28:49.783Z,45.22
2017-09-27T10:29:49.795Z,43.76
2017-09-27T10:30:49.810Z,44.37
2017-09-27T10:31:49.823Z,43.80
2017-09-27T10:32:49.837Z,43.53
2017-09-27T10:33:49.852Z,43.10
2017-09-27T10:34:49.865Z,44.09
2017-09-27T10:35:49.879Z,43.26
2017-09-27T10:36:49.892Z,42.83
2017-09-27T10:37:49.911Z,42.03
2017-09-27T10:38:49.926Z,41.19
2017-09-27T10:39:49.941Z,40.27
2017-09-27T10:40:49.954Z,40.97
2017-09-27T10:41:49.967Z,41.15
2017-09-27T10:42:49.981Z,41.19
2017-09-27T10:43:49.995Z,40.48
2017-09-27T10:44:50.010Z,41.05
2017-09-27T10:45:50.019Z,40.23
2017-09-27T10:46:50.034Z,39.47
2017-09-27T10:47:50.047Z,40.11
2017-09-27T10:48:50.060Z,38.90
2017-09-27T10:49:50.080Z,38.43
2017-09-27T10:50:50.094Z,38.00
2017-09-27T10:51:50.106Z,38.43
2017-09-27T10:52:50.120Z,37.52
2017-09-27T10:53:50.131Z,37.12
2017-09-27T10:54:50.145Z,37.23
2017-09-27T10:55:50.159Z,37.45
2017-09-27T10:56:50.171Z,37.19
2017-09-27T10:57:50.186Z,37.49
2017-09-27T10:58:50.201Z,37.59
2017-09-27T10:59:50.218Z,38.55
2017-09-27T11:00:50.281Z,38.77
2017-09-27T11:01:50.373Z,40.08
2017-09-27T11:02:50.267Z,41.38
2017-09-27T11:03:50.274Z,43.48
2017-09-27T11:04:50.285Z,44.89
2017-09-27T11:05:50.334Z,44.52
2017-09-27T11:06:50.313Z,43.59
2017-09-27T11:07:50.324Z,44.17
2017-09-27T11:08:50.336Z,43.78
2017-09-27T11:09:50.347Z,43.51
2017-09-27T11:10:50.371Z,43.29
2017-09-27T11:11:50.372Z,43.66
2017-09-27T11:12:50.382Z,44.24
2017-09-27T11:13:50.397Z,43.49
2017-09-27T11:14:50.411Z,43.35
2017-09-27T11:15:50.421Z,43.70
2017-09-27T11:16:50.432Z,45.04
2017-09-27T11:17:50.449Z,45.21
2017-09-27T11:18:50.552Z,46.41
2017-09-27T11:19:50.640Z,48.03
2017-09-27T11:20:50.574Z,48.69
2017-09-27T11:21:50.687Z,50.21
2017-09-27T11:22:50.610Z,50.50
2017-09-27T11:23:50.564Z,51.25
2017-09-27T11:24:50.572Z,52.32
2017-09-27T11:25:50.530Z,52.90
2017-09-27T11:26:50.539Z,53.19
2017-09-27T11:27:50.550Z,53.89
2017-09-27T11:28:50.560Z,54.31
2017-09-27T11:29:50.565Z,54.34
2017-09-27T11:30:50.575Z,53.95
2017-09-27T11:31:50.583Z,52.86
2017-09-27T11:32:50.591Z,51.96
2017-09-27T11:33:50.604Z,52.54
2017-09-27T11:34:50.610Z,53.41
2017-09-27T11:35:50.621Z,53.09
2017-09-27T11:36:50.626Z,53.49
2017-09-27T11:37:50.634Z,53.67
2017-09-27T11:38:50.639Z,54.43
2017-09-27T11:39:50.649Z,54.55
2017-09-27T11:40:50.822Z,54.77
2017-09-27T11:41:50.660Z,55.26
2017-09-27T11:42:50.710Z,54.45
2017-09-27T11:43:50.677Z,54.16
2017-09-27T11:44:50.678Z,54.43
2017-09-27T11:45:50.684Z,54.21
2017-09-27T11:46:50.690Z,54.85
2017-09-27T11:47:50.697Z,55.76
2017-09-27T11:48:50.703Z,55.47
2017-09-27T11:49:50.714Z,57.24
2017-09-27T11:50:50.720Z,57.12
2017-09-27T11:51:50.726Z,58.18
2017-09-27T11:52:50.732Z,58.57
2017-09-27T11:53:50.733Z,58.50
2017-09-27T11:54:50.739Z,58.37
2017-09-27T11:55:50.744Z,58.60
2017-09-27T11:56:50.749Z,58.80
2017-09-27T11:57:50.760Z,58.40
2017-09-27T11:58:50.764Z,58.31
2017-09-27T11:59:50.770Z,58.60
2017-09-27T12:00:50.776Z,58.21
2017-09-27T12:01:50.781Z,58.09
2017-09-27T12:02:50.788Z,57.92
2017-09-27T12:03:50.792Z,57.89
2017-09-27T12:04:50.797Z,57.79
2017-09-27T12:05:50.797Z,58.37
2017-09-27T12:06:50.804Z,58.54
2017-09-27T12:07:50.809Z,58.86
2017-09-27T12:08:50.816Z,58.67
2017-09-27T12:09:50.817Z,59.28
2017-09-27T12:10:50.823Z,58.50
2017-09-27T12:11:50.827Z,58.89
2017-09-27T12:12:50.831Z,59.56
2017-09-27T12:13:50.842Z,58.98
2017-09-27T12:14:50.857Z,58.37
2017-09-27T12:15:50.852Z,57.21
2017-09-27T12:16:50.854Z,57.96
2017-09-27T12:17:50.859Z,58.54
2017-09-27T12:18:50.865Z,58.93
2017-09-27T12:19:50.870Z,59.51
2017-09-27T12:20:50.874Z,58.73
2017-09-27T12:21:50.873Z,58.35
2017-09-27T12:22:50.898Z,58.47
2017-09-27T12:23:50.884Z,58.18
2017-09-27T12:24:50.886Z,58.12
2017-09-27T12:25:50.891Z,56.86
2017-09-27T12:26:50.896Z,56.37
2017-09-27T12:27:50.899Z,56.37
2017-09-27T12:28:50.903Z,57.18
2017-09-27T12:29:50.911Z,56.50
2017-09-27T12:30:50.915Z,57.40
2017-09-27T12:31:50.921Z,56.30
2017-09-27T12:32:50.924Z,55.85
2017-09-27T12:33:50.929Z,54.75
2017-09-27T12:34:50.940Z,55.05
2017-09-27T12:35:50.938Z,55.43
2017-09-27T12:36:50.942Z,55.53
2017-09-27T12:37:50.943Z,55.19
2017-09-27T12:38:50.948Z,55.60
2017-09-27T12:39:50.953Z,55.89
2017-09-27T12:40:50.955Z,55.89
2017-09-27T12:41:50.961Z,55.47
2017-09-27T12:42:50.965Z,55.70
2017-09-27T12:43:50.970Z,55.70
2017-09-27T12:44:50.974Z,55.79
2017-09-27T12:45:50.983Z,55.51
2017-09-27T12:46:50.988Z,55.79
2017-09-27T12:47:50.992Z,55.92
2017-09-27T12:48:50.997Z,55.31
2017-09-27T12:49:51.001Z,55.31
2017-09-27T12:50:51.006Z,55.29
2017-09-27T12:51:51.013Z,55.77
2017-09-27T12:52:51.014Z,55.79